Time;durP1;ratioP1;P1;durP2;ratioP2;P2;SDS_P1;SDS_P2;PMS_P1;PMS_P2;Temp;Humidity;BMP_temperature;BMP_pressure;BME280_temperature;BME280_humidity;BME280_pressure;Samples;Min_cycle;Max_cycle;Signal;HPM_P1;HPM_P2
2022/11/18 00:00:51;;;;;;;0.30;0.30;;;;;;;;;;1787133;80;26325;-49
2022/11/18 00:03:18;;;;;;;0.40;0.40;;;;;;;;;;1787014;80;27433;-49
2022/11/18 00:05:55;;;;;;;0.50;0.50;;;;;;;;;;1789664;79;26889;-53
2022/11/18 00:08:23;;;;;;;0.40;0.40;;;;;;;;;;1787575;79;26376;-50
2022/11/18 00:10:51;;;;;;;0.28;0.28;;;;;;;;;;1784764;79;26285;-49
2022/11/18 00:16:06;;;;;;;0.20;0.20;;;;;;;;;;1785630;79;26436;-47
2022/11/18 00:18:33;;;;;;;0.20;0.20;;;;;;;;;;1786164;80;26278;-50
2022/11/18 00:21:01;;;;;;;0.20;0.20;;;;;;;;;;1787827;80;26286;-50
2022/11/18 00:23:29;;;;;;;0.20;0.20;;;;;;;;;;1787699;80;26243;-50
2022/11/18 00:25:58;;;;;;;0.20;0.20;;;;;;;;;;1786204;79;26391;-50
2022/11/18 00:28:25;;;;;;;0.30;0.30;;;;;;;;;;1780262;79;26347;-48
2022/11/18 00:30:52;;;;;;;0.40;0.40;;;;;;;;;;1787489;80;26394;-51
2022/11/18 00:33:20;;;;;;;0.65;0.40;;;;;;;;;;1787482;80;26282;-51
2022/11/18 00:35:48;;;;;;;0.28;0.28;;;;;;;;;;1780738;80;26294;-49
2022/11/18 00:38:16;;;;;;;0.25;0.25;;;;;;;;;;1786653;79;26278;-52
2022/11/18 00:40:43;;;;;;;1.10;0.30;;;;;;;;;;1787197;79;26270;-51
2022/11/18 00:43:10;;;;;;;0.20;0.20;;;;;;;;;;1798427;79;26838;-54
2022/11/18 00:45:38;;;;;;;0.20;0.20;;;;;;;;;;1773981;79;26550;-49
2022/11/18 00:48:05;;;;;;;0.30;0.30;;;;;;;;;;1789477;79;26280;-52
2022/11/18 00:50:32;;;;;;;0.30;0.30;;;;;;;;;;1787604;79;26296;-52
2022/11/18 00:53:00;;;;;;;0.20;0.20;;;;;;;;;;1787740;79;26340;-51
2022/11/18 00:55:27;;;;;;;0.33;0.33;;;;;;;;;;1787772;80;26348;-53
2022/11/18 00:57:54;;;;;;;0.30;0.30;;;;;;;;;;1780015;80;26302;-53
2022/11/18 01:00:22;;;;;;;0.20;0.20;;;;;;;;;;1771349;80;26278;-50
2022/11/18 01:02:49;;;;;;;0.15;0.15;;;;;;;;;;1771274;80;26377;-51
2022/11/18 01:05:16;;;;;;;0.20;0.20;;;;;;;;;;1771632;81;26282;-53
2022/11/18 01:07:43;;;;;;;0.20;0.20;;;;;;;;;;1741067;82;26745;-53
2022/11/18 01:10:11;;;;;;;0.05;0.05;;;;;;;;;;1771335;80;26723;-50
2022/11/18 01:15:23;;;;;;;0.40;0.40;;;;;;;;;;1758951;81;26416;-52
2022/11/18 01:17:51;;;;;;;0.20;0.20;;;;;;;;;;1771668;80;25657;-50
2022/11/18 01:20:18;;;;;;;0.10;0.10;;;;;;;;;;1719774;82;26902;-52
2022/11/18 01:22:45;;;;;;;0.10;0.10;;;;;;;;;;1723871;82;26867;-49
2022/11/18 01:25:12;;;;;;;0.30;0.30;;;;;;;;;;1771399;80;26759;-48
2022/11/18 01:27:40;;;;;;;0.20;0.20;;;;;;;;;;1771135;80;26787;-53
2022/11/18 01:30:07;;;;;;;0.20;0.20;;;;;;;;;;1739183;82;26292;-51
2022/11/18 01:32:35;;;;;;;0.10;0.10;;;;;;;;;;1771562;80;26227;-50
2022/11/18 01:35:02;;;;;;;0.55;0.10;;;;;;;;;;1741236;82;26414;-50
2022/11/18 01:37:29;;;;;;;0.20;0.20;;;;;;;;;;1742086;81;26365;-48
2022/11/18 01:39:56;;;;;;;0.13;0.13;;;;;;;;;;1771467;80;26259;-52
2022/11/18 01:42:24;;;;;;;0.10;0.10;;;;;;;;;;1771035;80;26377;-52
2022/11/18 01:44:52;;;;;;;0.20;0.20;;;;;;;;;;1773271;80;26290;-48
2022/11/18 01:47:20;;;;;;;0.25;0.25;;;;;;;;;;1753308;80;26772;-51
2022/11/18 01:49:48;;;;;;;0.13;0.13;;;;;;;;;;1749536;80;26350;-54
2022/11/18 01:52:15;;;;;;;0.10;0.10;;;;;;;;;;1725742;82;26380;-54
2022/11/18 01:54:44;;;;;;;0.10;0.10;;;;;;;;;;1757079;80;26267;-53
2022/11/18 01:57:13;;;;;;;0.10;0.10;;;;;;;;;;1741132;82;26284;-49
2022/11/18 01:59:41;;;;;;;0.10;0.10;;;;;;;;;;1778124;80;26326;-52
2022/11/18 02:02:10;;;;;;;0.10;0.10;;;;;;;;;;1782046;80;26972;-49
2022/11/18 02:04:41;;;;;;;0.10;0.10;;;;;;;;;;1779568;79;26341;-52
2022/11/18 02:07:10;;;;;;;0.00;0.00;;;;;;;;;;1781556;80;26274;-52
2022/11/18 02:09:38;;;;;;;0.03;0.03;;;;;;;;;;1781310;79;26375;-53
2022/11/18 02:12:05;;;;;;;0.20;0.20;;;;;;;;;;1771103;79;26394;-51
2022/11/18 02:14:34;;;;;;;0.10;0.10;;;;;;;;;;1782418;80;26297;-54
2022/11/18 02:17:12;;;;;;;0.10;0.10;;;;;;;;;;1779322;79;26357;-50
2022/11/18 02:19:41;;;;;;;0.10;0.10;;;;;;;;;;1767678;80;26278;-50
2022/11/18 02:22:26;;;;;;;0.10;0.10;;;;;;;;;;1788633;79;26286;-52
2022/11/18 02:24:55;;;;;;;0.10;0.10;;;;;;;;;;1782593;80;26235;-54
2022/11/18 02:27:39;;;;;;;0.20;0.20;;;;;;;;;;1782888;79;26277;-55
2022/11/18 02:30:11;;;;;;;0.20;0.20;;;;;;;;;;1782429;80;26278;-47
2022/11/18 02:32:42;;;;;;;0.20;0.20;;;;;;;;;;1777402;80;26555;-53
2022/11/18 02:35:28;;;;;;;0.10;0.10;;;;;;;;;;1782619;80;26266;-52
2022/11/18 02:38:00;;;;;;;0.10;0.10;;;;;;;;;;1775496;79;26849;-52
2022/11/18 02:40:32;;;;;;;0.30;0.17;;;;;;;;;;1782077;79;26771;-50
2022/11/18 02:43:03;;;;;;;0.20;0.20;;;;;;;;;;1777609;79;26319;-49
2022/11/18 02:45:31;;;;;;;0.10;0.10;;;;;;;;;;1768599;80;26755;-49
2022/11/18 02:48:00;;;;;;;0.10;0.10;;;;;;;;;;1777698;80;26219;-49
2022/11/18 02:50:29;;;;;;;0.08;0.08;;;;;;;;;;1782420;79;26282;-49
2022/11/18 02:52:57;;;;;;;0.20;0.10;;;;;;;;;;1767140;80;26794;-49
2022/11/18 02:55:26;;;;;;;0.10;0.10;;;;;;;;;;1782592;80;26836;-53
2022/11/18 02:57:54;;;;;;;0.10;0.10;;;;;;;;;;1780761;80;26734;-50
2022/11/18 03:00:21;;;;;;;0.10;0.10;;;;;;;;;;1779259;79;26330;-52
2022/11/18 03:02:49;;;;;;;0.00;0.00;;;;;;;;;;1782338;80;26379;-51
2022/11/18 03:05:35;;;;;;;0.42;0.10;;;;;;;;;;1782767;80;26314;-49
2022/11/18 03:08:03;;;;;;;0.10;0.10;;;;;;;;;;1761198;80;26734;-50
2022/11/18 03:10:32;;;;;;;1.02;0.10;;;;;;;;;;1767795;79;26932;-54
2022/11/18 03:13:04;;;;;;;0.00;0.00;;;;;;;;;;1775317;80;26345;-51
2022/11/18 03:15:36;;;;;;;0.15;0.15;;;;;;;;;;1780256;80;26275;-52
2022/11/18 03:18:21;;;;;;;0.10;0.10;;;;;;;;;;1763066;80;26357;-50
2022/11/18 03:20:50;;;;;;;0.25;0.25;;;;;;;;;;1766140;80;26572;-53
2022/11/18 03:23:19;;;;;;;0.00;0.00;;;;;;;;;;1776587;79;26881;-50
2022/11/18 03:25:56;;;;;;;0.95;0.10;;;;;;;;;;1778669;80;26731;-51
2022/11/18 03:28:31;;;;;;;0.47;0.13;;;;;;;;;;1774399;80;26355;-50
2022/11/18 03:31:09;;;;;;;0.10;0.10;;;;;;;;;;1765006;80;26361;-51
2022/11/18 03:33:37;;;;;;;0.10;0.10;;;;;;;;;;1771339;79;26237;-51
2022/11/18 03:36:06;;;;;;;0.10;0.10;;;;;;;;;;1780986;80;26402;-51
2022/11/18 03:38:35;;;;;;;0.00;0.00;;;;;;;;;;1770472;80;26874;-54
2022/11/18 03:41:04;;;;;;;0.10;0.10;;;;;;;;;;1779787;79;26356;-54
2022/11/18 03:43:32;;;;;;;0.20;0.20;;;;;;;;;;1784060;79;26858;-51
2022/11/18 03:46:01;;;;;;;0.20;0.20;;;;;;;;;;1785850;79;26631;-52
2022/11/18 03:48:30;;;;;;;0.00;0.00;;;;;;;;;;1781193;80;26340;-49
2022/11/18 03:50:59;;;;;;;0.10;0.10;;;;;;;;;;1781036;79;26739;-54
2022/11/18 03:53:28;;;;;;;0.00;0.00;;;;;;;;;;1780289;80;26814;-52
2022/11/18 03:55:57;;;;;;;0.10;0.10;;;;;;;;;;1780119;79;26230;-53
2022/11/18 03:58:31;;;;;;;0.05;0.05;;;;;;;;;;1768874;80;26241;-50
2022/11/18 04:01:00;;;;;;;0.45;0.20;;;;;;;;;;1782045;79;26318;-51
2022/11/18 04:03:27;;;;;;;0.20;0.20;;;;;;;;;;1794918;79;26310;-52
2022/11/18 04:05:56;;;;;;;0.10;0.10;;;;;;;;;;1764268;79;26350;-50
2022/11/18 04:08:25;;;;;;;0.10;0.10;;;;;;;;;;1781748;80;26289;-51
2022/11/18 04:10:54;;;;;;;0.10;0.10;;;;;;;;;;1774268;79;26273;-53
2022/11/18 04:13:23;;;;;;;0.10;0.10;;;;;;;;;;1771603;79;26310;-49
2022/11/18 04:15:50;;;;;;;0.10;0.10;;;;;;;;;;1781312;79;26302;-49
2022/11/18 04:18:18;;;;;;;0.10;0.10;;;;;;;;;;1780629;79;26278;-52
2022/11/18 04:20:45;;;;;;;0.20;0.20;;;;;;;;;;1764758;79;26289;-51
2022/11/18 04:23:12;;;;;;;0.10;0.10;;;;;;;;;;1782457;79;26759;-50
2022/11/18 04:25:40;;;;;;;0.10;0.10;;;;;;;;;;1782027;80;26505;-52
2022/11/18 04:28:07;;;;;;;0.10;0.10;;;;;;;;;;1782501;80;26364;-49
2022/11/18 04:30:34;;;;;;;0.10;0.10;;;;;;;;;;1780849;79;26337;-51
2022/11/18 04:33:01;;;;;;;0.13;0.13;;;;;;;;;;1769186;80;26757;-49
2022/11/18 04:35:29;;;;;;;0.05;0.05;;;;;;;;;;1777781;79;26657;-52
2022/11/18 04:37:56;;;;;;;0.10;0.10;;;;;;;;;;1779313;79;26283;-51
2022/11/18 04:40:23;;;;;;;0.03;0.03;;;;;;;;;;1780667;79;26404;-49
2022/11/18 04:42:51;;;;;;;0.10;0.10;;;;;;;;;;1782655;79;26344;-53
2022/11/18 04:45:18;;;;;;;0.10;0.10;;;;;;;;;;1780610;80;26778;-52
2022/11/18 04:47:45;;;;;;;0.25;0.20;;;;;;;;;;1780605;80;26345;-50
2022/11/18 04:50:13;;;;;;;0.13;0.13;;;;;;;;;;1782440;79;26281;-54
2022/11/18 04:52:40;;;;;;;0.10;0.10;;;;;;;;;;1780873;79;26400;-54
2022/11/18 04:55:07;;;;;;;0.10;0.10;;;;;;;;;;1781526;80;26348;-53
2022/11/18 04:57:35;;;;;;;0.68;0.10;;;;;;;;;;1769736;80;26240;-49
2022/11/18 05:00:02;;;;;;;0.13;0.10;;;;;;;;;;1766963;80;26310;-53
2022/11/18 05:02:30;;;;;;;0.10;0.10;;;;;;;;;;1753078;82;26240;-53
2022/11/18 05:04:57;;;;;;;0.15;0.15;;;;;;;;;;1752746;80;27057;-52
2022/11/18 05:07:24;;;;;;;0.10;0.10;;;;;;;;;;1748201;82;26843;-51
2022/11/18 05:09:52;;;;;;;0.45;0.20;;;;;;;;;;1748399;80;26771;-51
2022/11/18 05:15:05;;;;;;;0.00;0.00;;;;;;;;;;1747590;80;26780;-52
2022/11/18 05:17:34;;;;;;;0.00;0.00;;;;;;;;;;1752548;82;26239;-53
2022/11/18 05:20:01;;;;;;;0.10;0.10;;;;;;;;;;1733246;80;26356;-54
2022/11/18 05:22:28;;;;;;;0.10;0.10;;;;;;;;;;1744759;82;26287;-52
2022/11/18 05:24:55;;;;;;;0.15;0.15;;;;;;;;;;1753070;82;26309;-50
2022/11/18 05:27:23;;;;;;;0.13;0.13;;;;;;;;;;1752811;80;26215;-52
2022/11/18 05:29:50;;;;;;;0.10;0.10;;;;;;;;;;1745670;82;26415;-51
2022/11/18 05:32:18;;;;;;;0.10;0.10;;;;;;;;;;1752025;82;25726;-51
2022/11/18 05:34:45;;;;;;;4.17;0.17;;;;;;;;;;1753131;80;26341;-49
2022/11/18 05:37:12;;;;;;;0.00;0.00;;;;;;;;;;1753521;80;26319;-48
2022/11/18 05:39:40;;;;;;;0.10;0.10;;;;;;;;;;1752113;80;26282;-49
2022/11/18 05:44:52;;;;;;;0.10;0.10;;;;;;;;;;1744809;82;26752;-52
2022/11/18 05:47:20;;;;;;;0.20;0.20;;;;;;;;;;1753425;80;26751;-49
2022/11/18 05:49:47;;;;;;;0.10;0.10;;;;;;;;;;1747979;80;26279;-50
2022/11/18 05:52:14;;;;;;;0.15;0.15;;;;;;;;;;1735635;82;26290;-49
2022/11/18 05:54:43;;;;;;;0.42;0.20;;;;;;;;;;1753525;82;26267;-49
2022/11/18 05:57:10;;;;;;;0.10;0.10;;;;;;;;;;1753188;82;26283;-52
2022/11/18 05:59:37;;;;;;;0.20;0.10;;;;;;;;;;1753224;80;26279;-50
2022/11/18 06:02:06;;;;;;;0.62;0.20;;;;;;;;;;1753638;80;26377;-52
2022/11/18 06:04:35;;;;;;;0.55;0.15;;;;;;;;;;1753254;80;26842;-53
2022/11/18 06:07:13;;;;;;;0.85;0.10;;;;;;;;;;1723670;82;26829;-50
2022/11/18 06:09:41;;;;;;;0.20;0.20;;;;;;;;;;1752233;80;26279;-52
2022/11/18 06:12:09;;;;;;;0.65;0.20;;;;;;;;;;1753220;81;26298;-49
2022/11/18 06:14:38;;;;;;;0.25;0.25;;;;;;;;;;1752656;82;26292;-50
2022/11/18 06:17:07;;;;;;;0.45;0.20;;;;;;;;;;1753820;81;26338;-52
2022/11/18 06:19:34;;;;;;;2.50;0.50;;;;;;;;;;1752178;80;26283;-57
2022/11/18 06:22:03;;;;;;;0.33;0.30;;;;;;;;;;1731386;82;26262;-58
2022/11/18 06:24:30;;;;;;;2.15;0.55;;;;;;;;;;1751362;80;26296;-58
2022/11/18 06:26:58;;;;;;;2.17;0.35;;;;;;;;;;1753635;81;26267;-58
2022/11/18 06:29:26;;;;;;;2.67;0.72;;;;;;;;;;1748950;82;26457;-58
2022/11/18 06:31:53;;;;;;;2.62;0.28;;;;;;;;;;1750281;80;26235;-59
2022/11/18 06:34:21;;;;;;;0.20;0.20;;;;;;;;;;1751193;82;26357;-58
2022/11/18 06:36:48;;;;;;;0.17;0.17;;;;;;;;;;1749216;82;26338;-58
2022/11/18 06:39:15;;;;;;;0.50;0.30;;;;;;;;;;1751921;80;26291;-58
2022/11/18 06:41:42;;;;;;;1.02;0.55;;;;;;;;;;1751075;80;26259;-58
2022/11/18 06:44:12;;;;;;;0.30;0.20;;;;;;;;;;1752501;81;26357;-55
2022/11/18 06:47:13;;;;;;;1.65;0.30;;;;;;;;;;1750516;80;26312;-57
2022/11/18 06:49:16;;;;;;;0.68;0.30;;;;;;;;;;1736566;80;26275;-58
2022/11/18 06:51:43;;;;;;;0.53;0.25;;;;;;;;;;1751579;82;26353;-57
2022/11/18 06:54:10;;;;;;;0.95;0.20;;;;;;;;;;1746759;80;26453;-58
2022/11/18 06:56:38;;;;;;;0.95;0.40;;;;;;;;;;1746885;80;27404;-58
2022/11/18 06:59:05;;;;;;;1.52;0.42;;;;;;;;;;1744748;80;26692;-56
2022/11/18 07:01:34;;;;;;;1.17;0.30;;;;;;;;;;1750485;80;26251;-57
2022/11/18 07:04:02;;;;;;;2.42;0.53;;;;;;;;;;1752634;80;26328;-57
2022/11/18 07:06:31;;;;;;;0.40;0.40;;;;;;;;;;1754137;80;26271;-55
2022/11/18 07:09:02;;;;;;;0.45;0.40;;;;;;;;;;1752571;82;26334;-57
2022/11/18 07:11:30;;;;;;;2.50;0.60;;;;;;;;;;1749601;80;26756;-57
2022/11/18 07:13:57;;;;;;;0.65;0.35;;;;;;;;;;1745728;79;26215;-63
2022/11/18 07:16:25;;;;;;;3.42;0.42;;;;;;;;;;1753287;80;26283;-54
2022/11/18 07:18:54;;;;;;;1.40;0.50;;;;;;;;;;1753389;82;26254;-52
2022/11/18 07:21:25;;;;;;;2.50;0.47;;;;;;;;;;1758465;80;26879;-54
2022/11/18 07:23:53;;;;;;;0.30;0.30;;;;;;;;;;1752895;82;26283;-55
2022/11/18 07:26:20;;;;;;;4.12;0.70;;;;;;;;;;1752943;80;26698;-55
2022/11/18 07:28:48;;;;;;;1.12;0.33;;;;;;;;;;1751901;82;26267;-56
2022/11/18 07:31:17;;;;;;;2.08;0.42;;;;;;;;;;1751879;82;26228;-54
2022/11/18 07:33:45;;;;;;;0.30;0.30;;;;;;;;;;1751727;81;26345;-55
2022/11/18 07:36:19;;;;;;;2.17;0.30;;;;;;;;;;1745997;82;26920;-55
2022/11/18 07:38:47;;;;;;;2.05;0.37;;;;;;;;;;1748016;80;26735;-59
2022/11/18 07:41:16;;;;;;;1.45;0.40;;;;;;;;;;1747201;80;28346;-54
2022/11/18 07:43:43;;;;;;;2.12;0.30;;;;;;;;;;1751864;80;26302;-59
2022/11/18 07:46:15;;;;;;;1.90;0.50;;;;;;;;;;1754014;80;26767;-59
2022/11/18 07:48:43;;;;;;;1.70;0.30;;;;;;;;;;1756061;80;27944;-59
2022/11/18 07:51:11;;;;;;;0.30;0.30;;;;;;;;;;1756101;80;26283;-58
2022/11/18 07:53:38;;;;;;;2.40;0.62;;;;;;;;;;1755983;80;27082;-58
2022/11/18 07:56:06;;;;;;;0.30;0.30;;;;;;;;;;1756724;80;26799;-57
2022/11/18 07:58:34;;;;;;;0.45;0.42;;;;;;;;;;1754620;80;26342;-53
2022/11/18 08:01:08;;;;;;;0.33;0.33;;;;;;;;;;1756409;80;26448;-55
2022/11/18 08:03:35;;;;;;;0.30;0.30;;;;;;;;;;1756480;80;26838;-58
2022/11/18 08:06:03;;;;;;;3.55;0.35;;;;;;;;;;1756421;80;26319;-54
2022/11/18 08:08:31;;;;;;;1.47;0.30;;;;;;;;;;1753649;80;26823;-54
2022/11/18 08:10:59;;;;;;;0.82;0.30;;;;;;;;;;1753584;80;26342;-54
2022/11/18 08:13:27;;;;;;;0.33;0.33;;;;;;;;;;1759778;80;27146;-56
2022/11/18 08:15:54;;;;;;;0.50;0.40;;;;;;;;;;1756574;80;26278;-53
2022/11/18 08:18:22;;;;;;;0.33;0.33;;;;;;;;;;1756846;80;26227;-51
2022/11/18 08:20:49;;;;;;;0.65;0.28;;;;;;;;;;1757773;80;26393;-55
2022/11/18 08:23:17;;;;;;;0.30;0.30;;;;;;;;;;1758208;80;26350;-58
2022/11/18 08:25:45;;;;;;;0.20;0.20;;;;;;;;;;1758041;80;26438;-54
2022/11/18 08:28:13;;;;;;;0.65;0.30;;;;;;;;;;1756925;80;26294;-56
2022/11/18 08:30:40;;;;;;;0.20;0.20;;;;;;;;;;1763678;80;27541;-59
2022/11/18 08:33:08;;;;;;;0.30;0.30;;;;;;;;;;1753319;80;26288;-59
2022/11/18 08:35:35;;;;;;;0.30;0.30;;;;;;;;;;1755850;80;26296;-51
2022/11/18 08:38:02;;;;;;;0.30;0.30;;;;;;;;;;1756944;80;26291;-55
2022/11/18 08:40:30;;;;;;;1.37;0.35;;;;;;;;;;1756180;80;26686;-51
2022/11/18 08:42:57;;;;;;;0.20;0.20;;;;;;;;;;1757655;80;26294;-54
2022/11/18 08:45:25;;;;;;;0.30;0.30;;;;;;;;;;1757626;80;26328;-57
2022/11/18 08:47:52;;;;;;;0.20;0.20;;;;;;;;;;1755857;80;26276;-54
2022/11/18 08:50:20;;;;;;;0.30;0.30;;;;;;;;;;1757101;80;26213;-54
2022/11/18 08:52:47;;;;;;;0.30;0.30;;;;;;;;;;1757096;80;26310;-55
2022/11/18 08:55:14;;;;;;;0.20;0.20;;;;;;;;;;1754653;80;26330;-54
2022/11/18 08:57:41;;;;;;;0.30;0.30;;;;;;;;;;1756423;80;26319;-59
2022/11/18 09:00:09;;;;;;;0.40;0.40;;;;;;;;;;1755420;80;26325;-59
2022/11/18 09:02:37;;;;;;;0.30;0.30;;;;;;;;;;1757165;78;26302;-53
2022/11/18 09:05:04;;;;;;;0.30;0.30;;;;;;;;;;1756781;80;26424;-54
2022/11/18 09:07:31;;;;;;;0.40;0.40;;;;;;;;;;1755944;80;26335;-56
2022/11/18 09:09:59;;;;;;;0.40;0.40;;;;;;;;;;1757881;80;26275;-58
2022/11/18 09:12:26;;;;;;;0.20;0.20;;;;;;;;;;1755474;80;26295;-54
2022/11/18 09:14:53;;;;;;;0.30;0.30;;;;;;;;;;1752761;80;26628;-57
2022/11/18 09:17:20;;;;;;;0.50;0.30;;;;;;;;;;1741749;80;28233;-55
2022/11/18 09:19:48;;;;;;;0.30;0.30;;;;;;;;;;1756843;80;26259;-52
2022/11/18 09:22:15;;;;;;;0.85;0.30;;;;;;;;;;1758232;80;26346;-53
2022/11/18 09:24:43;;;;;;;0.30;0.30;;;;;;;;;;1757007;80;26326;-55
2022/11/18 09:27:11;;;;;;;0.30;0.30;;;;;;;;;;1758505;80;26366;-51
2022/11/18 09:29:38;;;;;;;0.33;0.33;;;;;;;;;;1752701;80;26593;-56
2022/11/18 09:32:05;;;;;;;0.20;0.20;;;;;;;;;;1753564;80;26224;-58
2022/11/18 09:34:34;;;;;;;0.25;0.25;;;;;;;;;;1752990;80;26340;-60
2022/11/18 09:37:05;;;;;;;0.30;0.30;;;;;;;;;;1754371;80;26377;-57
2022/11/18 09:39:34;;;;;;;0.35;0.30;;;;;;;;;;1753834;80;26405;-57
2022/11/18 09:42:03;;;;;;;1.00;0.30;;;;;;;;;;1756421;80;26272;-59
2022/11/18 09:44:47;;;;;;;5.67;0.62;;;;;;;;;;1755149;80;26296;-58
2022/11/18 09:47:16;;;;;;;0.30;0.30;;;;;;;;;;1755496;80;26221;-58
2022/11/18 09:49:45;;;;;;;0.28;0.25;;;;;;;;;;1753790;80;26548;-59
2022/11/18 09:52:13;;;;;;;0.30;0.30;;;;;;;;;;1756931;80;26728;-59
2022/11/18 09:54:41;;;;;;;0.42;0.30;;;;;;;;;;1757537;80;26346;-58
2022/11/18 09:57:13;;;;;;;0.33;0.28;;;;;;;;;;1750904;80;26380;-58
2022/11/18 09:59:40;;;;;;;0.20;0.20;;;;;;;;;;1757526;80;26861;-53
2022/11/18 10:02:15;;;;;;;0.20;0.20;;;;;;;;;;1762483;78;26389;-57
2022/11/18 10:04:42;;;;;;;1.07;0.30;;;;;;;;;;1805730;78;26334;-58
2022/11/18 10:07:17;;;;;;;0.30;0.30;;;;;;;;;;1801623;78;26277;-58
2022/11/18 10:09:45;;;;;;;0.20;0.20;;;;;;;;;;1804192;78;26319;-58
2022/11/18 10:12:23;;;;;;;0.23;0.23;;;;;;;;;;1801981;78;26750;-58
2022/11/18 10:14:55;;;;;;;0.40;0.40;;;;;;;;;;1802532;78;26809;-57
2022/11/18 10:17:33;;;;;;;0.20;0.20;;;;;;;;;;1801884;78;26348;-50
2022/11/18 10:20:14;;;;;;;0.65;0.20;;;;;;;;;;1801993;78;26836;-55
2022/11/18 10:22:55;;;;;;;2.15;0.37;;;;;;;;;;1802170;78;26353;-58
2022/11/18 10:25:22;;;;;;;0.30;0.30;;;;;;;;;;1804713;78;27775;-56
2022/11/18 10:27:50;;;;;;;0.35;0.30;;;;;;;;;;1801360;78;26281;-57
2022/11/18 10:30:21;;;;;;;0.10;0.10;;;;;;;;;;1802055;78;26954;-57
2022/11/18 10:32:56;;;;;;;0.30;0.30;;;;;;;;;;1800088;78;27456;-58
2022/11/18 10:35:32;;;;;;;0.20;0.20;;;;;;;;;;1805532;78;26376;-58
2022/11/18 10:38:00;;;;;;;0.20;0.20;;;;;;;;;;1804531;78;26160;-59
2022/11/18 10:40:28;;;;;;;0.30;0.30;;;;;;;;;;1803855;78;26384;-61
2022/11/18 10:42:56;;;;;;;0.20;0.20;;;;;;;;;;1804632;78;27533;-61
2022/11/18 10:45:25;;;;;;;0.30;0.30;;;;;;;;;;1797389;78;26329;-58
2022/11/18 10:48:00;;;;;;;0.28;0.28;;;;;;;;;;1805684;78;26829;-55
2022/11/18 10:50:32;;;;;;;1.22;0.30;;;;;;;;;;1794944;78;26316;-60
2022/11/18 10:52:59;;;;;;;0.20;0.20;;;;;;;;;;1792249;80;26356;-57
2022/11/18 10:55:27;;;;;;;2.92;0.30;;;;;;;;;;1793406;78;26395;-57
2022/11/18 10:57:56;;;;;;;0.50;0.20;;;;;;;;;;1798980;78;26805;-57
2022/11/18 11:00:41;;;;;;;1.22;0.20;;;;;;;;;;1804948;78;26329;-59
2022/11/18 11:03:21;;;;;;;0.40;0.40;;;;;;;;;;1803565;78;26395;-53
2022/11/18 11:05:50;;;;;;;0.42;0.20;;;;;;;;;;1803025;78;26286;-58
2022/11/18 11:08:19;;;;;;;0.25;0.25;;;;;;;;;;1802862;78;26360;-57
2022/11/18 11:10:56;;;;;;;0.10;0.10;;;;;;;;;;1803211;78;27385;-58
2022/11/18 11:13:25;;;;;;;0.20;0.20;;;;;;;;;;1802685;78;26301;-58
2022/11/18 11:15:55;;;;;;;0.20;0.20;;;;;;;;;;1803032;78;26554;-59
2022/11/18 11:18:42;;;;;;;0.20;0.20;;;;;;;;;;1805252;78;26305;-57
2022/11/18 11:21:14;;;;;;;0.20;0.20;;;;;;;;;;1803662;78;26663;-47
2022/11/18 11:23:42;;;;;;;0.20;0.20;;;;;;;;;;1800518;78;26379;-59
2022/11/18 11:26:19;;;;;;;0.53;0.30;;;;;;;;;;1803057;78;26290;-58
2022/11/18 11:28:57;;;;;;;0.20;0.20;;;;;;;;;;1805441;78;26341;-56
2022/11/18 11:31:43;;;;;;;0.20;0.20;;;;;;;;;;1801425;78;26379;-57
2022/11/18 11:34:12;;;;;;;0.13;0.13;;;;;;;;;;1802221;78;26742;-55
2022/11/18 11:36:50;;;;;;;0.53;0.20;;;;;;;;;;1802632;78;26344;-54
2022/11/18 11:39:34;;;;;;;0.17;0.17;;;;;;;;;;1805712;78;26365;-57
2022/11/18 11:42:06;;;;;;;0.30;0.20;;;;;;;;;;1799070;78;26312;-56
2022/11/18 11:44:37;;;;;;;0.20;0.20;;;;;;;;;;1800426;78;26285;-56
2022/11/18 11:50:02;;;;;;;0.85;0.20;;;;;;;;;;1807689;78;26554;-56
2022/11/18 11:52:31;;;;;;;0.30;0.30;;;;;;;;;;1801805;78;26281;-57
2022/11/18 11:55:05;;;;;;;0.20;0.20;;;;;;;;;;1801020;78;26360;-57
2022/11/18 11:57:43;;;;;;;0.20;0.20;;;;;;;;;;1789998;78;26239;-56
2022/11/18 12:00:15;;;;;;;0.15;0.15;;;;;;;;;;1805721;78;26321;-56
2022/11/18 12:03:00;;;;;;;0.30;0.30;;;;;;;;;;1806266;78;26376;-58
2022/11/18 12:05:33;;;;;;;0.20;0.20;;;;;;;;;;1806743;78;26738;-55
2022/11/18 12:08:02;;;;;;;0.35;0.30;;;;;;;;;;1804891;78;26382;-57
2022/11/18 12:10:31;;;;;;;0.23;0.23;;;;;;;;;;1807583;78;26360;-58
2022/11/18 12:13:07;;;;;;;0.30;0.30;;;;;;;;;;1800632;78;26337;-59
2022/11/18 12:15:33;;;;;;;1.07;0.88;;;;;;;;;;1771805;80;27035;-59
2022/11/18 12:18:14;;;;;;;0.30;0.30;;;;;;;;;;1770176;80;27287;-57
2022/11/18 12:20:43;;;;;;;0.95;0.30;;;;;;;;;;1805290;78;26332;-58
2022/11/18 12:23:21;;;;;;;0.37;0.37;;;;;;;;;;1804048;78;26356;-58
2022/11/18 12:25:50;;;;;;;0.40;0.40;;;;;;;;;;1803732;78;26616;-54
2022/11/18 12:28:34;;;;;;;1.20;0.40;;;;;;;;;;1804848;78;26277;-59
2022/11/18 12:31:21;;;;;;;0.20;0.20;;;;;;;;;;1805315;78;25916;-57
2022/11/18 12:33:53;;;;;;;0.30;0.30;;;;;;;;;;1802260;78;26274;-59
2022/11/18 12:36:27;;;;;;;1.02;0.30;;;;;;;;;;1802217;78;27023;-55
2022/11/18 12:38:55;;;;;;;0.35;0.35;;;;;;;;;;1804046;78;26321;-58
2022/11/18 12:44:28;;;;;;;2.95;0.30;;;;;;;;;;1805969;78;26802;-54
2022/11/18 12:46:57;;;;;;;0.30;0.30;;;;;;;;;;1804074;78;26672;-60
2022/11/18 12:49:25;;;;;;;0.30;0.30;;;;;;;;;;1790073;78;28343;-67
2022/11/18 12:51:54;;;;;;;7.75;0.30;;;;;;;;;;1804447;78;26329;-63
2022/11/18 12:54:25;;;;;;;0.37;0.20;;;;;;;;;;1805158;78;26923;-61
2022/11/18 12:56:53;;;;;;;0.40;0.20;;;;;;;;;;1806069;78;26825;-60
2022/11/18 12:59:28;;;;;;;0.20;0.20;;;;;;;;;;1803546;78;26293;-55
2022/11/18 13:02:12;;;;;;;0.33;0.33;;;;;;;;;;1804665;78;27385;-54
2022/11/18 13:04:39;;;;;;;4.22;0.20;;;;;;;;;;1798674;78;26396;-52
2022/11/18 13:08:11;;;;;;;0.20;0.20;;;;;;;;;;1788561;79;26324;-55
2022/11/18 13:09:37;;;;;;;0.20;0.20;;;;;;;;;;1789542;79;26370;-49
2022/11/18 13:12:07;;;;;;;1.70;0.35;;;;;;;;;;1789215;79;25779;-48
2022/11/18 13:17:57;;;;;;;1.20;0.30;;;;;;;;;;1789471;79;26240;-58
2022/11/18 13:20:35;;;;;;;0.85;0.28;;;;;;;;;;1787698;79;26353;-61
2022/11/18 13:25:50;;;;;;;0.30;0.30;;;;;;;;;;1784353;79;26415;-56
2022/11/18 13:28:18;;;;;;;0.80;0.50;;;;;;;;;;1790827;79;26345;-57
2022/11/18 13:30:47;;;;;;;0.20;0.20;;;;;;;;;;1787497;79;26332;-57
2022/11/18 13:33:15;;;;;;;0.20;0.20;;;;;;;;;;1790766;79;26321;-51
2022/11/18 13:35:42;;;;;;;0.20;0.20;;;;;;;;;;1787996;79;26386;-50
2022/11/18 13:38:11;;;;;;;0.30;0.30;;;;;;;;;;1788071;79;27410;-57
2022/11/18 13:41:02;;;;;;;0.42;0.37;;;;;;;;;;1781685;79;27005;-51
2022/11/18 13:43:10;;;;;;;0.72;0.30;;;;;;;;;;1781867;79;26311;-51
2022/11/18 13:45:38;;;;;;;0.20;0.20;;;;;;;;;;1787293;79;26692;-57
2022/11/18 13:48:07;;;;;;;3.02;0.33;;;;;;;;;;1788483;79;26318;-56
2022/11/18 13:50:36;;;;;;;0.35;0.20;;;;;;;;;;1787098;79;26299;-46
2022/11/18 13:53:17;;;;;;;0.20;0.20;;;;;;;;;;1784943;79;26384;-56
2022/11/18 13:55:46;;;;;;;0.28;0.28;;;;;;;;;;1786681;79;26361;-55
2022/11/18 13:58:18;;;;;;;0.30;0.30;;;;;;;;;;1785770;79;26322;-58
2022/11/18 14:00:46;;;;;;;0.30;0.30;;;;;;;;;;1782619;79;26804;-53
2022/11/18 14:03:15;;;;;;;0.20;0.20;;;;;;;;;;1781161;79;26321;-45
2022/11/18 14:05:44;;;;;;;0.55;0.30;;;;;;;;;;1784021;79;26638;-53
2022/11/18 14:08:13;;;;;;;0.20;0.20;;;;;;;;;;1783925;79;26326;-46
2022/11/18 14:10:44;;;;;;;0.30;0.30;;;;;;;;;;1788611;79;26361;-50
2022/11/18 14:13:15;;;;;;;0.37;0.37;;;;;;;;;;1790957;79;26725;-49
2022/11/18 14:15:43;;;;;;;0.20;0.20;;;;;;;;;;1786784;79;26850;-50
2022/11/18 14:18:15;;;;;;;0.20;0.20;;;;;;;;;;1789698;79;26377;-49
2022/11/18 14:20:44;;;;;;;0.30;0.30;;;;;;;;;;1779103;79;26404;-53
2022/11/18 14:23:12;;;;;;;0.40;0.37;;;;;;;;;;1787186;79;26306;-49
2022/11/18 14:25:41;;;;;;;0.47;0.47;;;;;;;;;;1791951;79;26326;-47
2022/11/18 14:28:13;;;;;;;0.20;0.20;;;;;;;;;;1788953;79;26723;-51
2022/11/18 14:30:41;;;;;;;0.40;0.40;;;;;;;;;;1789271;79;26332;-54
2022/11/18 14:33:24;;;;;;;0.30;0.30;;;;;;;;;;1792503;79;26339;-59
2022/11/18 14:35:59;;;;;;;0.37;0.37;;;;;;;;;;1790055;79;26629;-54
2022/11/18 14:38:31;;;;;;;0.33;0.33;;;;;;;;;;1794039;79;26395;-51
2022/11/18 14:41:00;;;;;;;0.68;0.25;;;;;;;;;;1796553;79;26823;-52
2022/11/18 14:43:27;;;;;;;0.30;0.30;;;;;;;;;;1791450;79;26315;-48
2022/11/18 14:45:56;;;;;;;0.30;0.30;;;;;;;;;;1790297;79;26364;-52
2022/11/18 14:48:25;;;;;;;2.35;0.50;;;;;;;;;;1791528;79;26278;-56
2022/11/18 14:50:52;;;;;;;2.00;0.42;;;;;;;;;;1785839;79;26991;-50
2022/11/18 14:53:19;;;;;;;1.12;0.37;;;;;;;;;;1787707;79;27403;-51
2022/11/18 14:55:48;;;;;;;0.40;0.40;;;;;;;;;;1783966;79;26411;-52
2022/11/18 14:58:15;;;;;;;0.40;0.40;;;;;;;;;;1792130;79;26730;-52
2022/11/18 15:00:43;;;;;;;0.53;0.40;;;;;;;;;;1788480;79;26517;-60
2022/11/18 15:03:11;;;;;;;1.15;0.50;;;;;;;;;;1789925;79;27068;-53
2022/11/18 15:05:38;;;;;;;0.72;0.42;;;;;;;;;;1787202;79;26315;-58
2022/11/18 15:08:06;;;;;;;1.25;0.40;;;;;;;;;;1788264;79;26224;-46
2022/11/18 15:10:33;;;;;;;1.07;0.33;;;;;;;;;;1789566;79;26376;-52
2022/11/18 15:13:00;;;;;;;0.40;0.40;;;;;;;;;;1789964;79;27303;-50
2022/11/18 15:15:28;;;;;;;0.40;0.40;;;;;;;;;;1785996;79;26590;-58
2022/11/18 15:17:55;;;;;;;1.00;0.40;;;;;;;;;;1788631;79;26309;-60
2022/11/18 15:20:23;;;;;;;1.02;0.40;;;;;;;;;;1788835;79;26360;-58